Cobden, Minnesota
Current Conditions -  °F | °C
As of 6:14 AM on Saturday 20 Dec 2014 (Local Time) from KULM Reporting Station
Overcast Overcast  
Wind Chill: 22°   Ceiling: 2200
Heat Index: 30°   Visibility: 10mi
Dew Point: 28°   Wind: 9mph
Humidity: 93%   Direction: 180°S
Pressure: 30.13"   Gusts: NA
Location:  44.2501°N, 94.7374°W
Report Text: KULM 201214Z AUTO 18008KT 10SM BKN022 OVC027 M01/M02 A3013 RMK AO2
Loading
Personal Weather Stations






























Interactive Weather Map New forecast layout! Learn more

10-Day Weather Forecast

Advertisements
Track Severe Weather on mobile